Time;durP1;ratioP1;P1;durP2;ratioP2;P2;SDS_P1;SDS_P2;PMS_P1;PMS_P2;Temp;Humidity;BMP_temperature;BMP_pressure;BME280_temperature;BME280_humidity;BME280_pressure;Samples;Min_cycle;Max_cycle;Signal;HPM_P1;HPM_P2
2022/11/15 00:01:47;;;;;;;11.93;10.10;;;3.10;99.90;;;;;;5117434;28;20569;-80
2022/11/15 00:04:15;;;;;;;14.63;9.70;;;3.10;99.90;;;;;;5117326;28;20596;-80
2022/11/15 00:06:46;;;;;;;11.33;9.77;;;3.10;99.90;;;;;;5116509;28;20214;-79
2022/11/15 00:09:17;;;;;;;12.03;10.00;;;3.10;99.90;;;;;;5116091;28;20241;-79
2022/11/15 00:11:49;;;;;;;13.10;10.53;;;3.20;99.90;;;;;;5123716;27;20225;-79
2022/11/15 00:14:20;;;;;;;12.43;10.27;;;3.10;99.90;;;;;;5136398;27;20235;-81
2022/11/15 00:16:49;;;;;;;13.37;10.23;;;3.10;99.90;;;;;;5136770;27;20205;-79
2022/11/15 00:19:17;;;;;;;11.83;9.97;;;3.20;99.90;;;;;;5119557;27;20202;-81
2022/11/15 00:21:46;;;;;;;11.40;10.03;;;3.20;99.90;;;;;;5116076;28;20205;-76
2022/11/15 00:24:19;;;;;;;14.17;10.60;;;3.30;99.90;;;;;;5115572;28;20206;-73
2022/11/15 00:26:49;;;;;;;12.90;10.10;;;3.20;99.90;;;;;;5115372;28;20202;-75
2022/11/15 00:29:17;;;;;;;11.07;9.83;;;3.30;99.90;;;;;;5114399;28;20210;-77
2022/11/15 00:31:45;;;;;;;11.37;9.60;;;3.30;99.90;;;;;;5115158;28;20226;-78
2022/11/15 00:34:13;;;;;;;13.17;10.97;;;3.20;99.90;;;;;;5115167;28;20205;-79
2022/11/15 00:36:41;;;;;;;13.17;10.20;;;3.10;99.90;;;;;;5115098;28;20230;-81
2022/11/15 00:39:09;;;;;;;13.63;10.27;;;3.10;99.90;;;;;;5115020;28;20293;-81
2022/11/15 00:41:37;;;;;;;13.37;10.40;;;3.20;99.90;;;;;;5114603;28;20204;-80
2022/11/15 00:44:07;;;;;;;12.40;10.80;;;3.10;99.90;;;;;;5114169;28;20206;-77
2022/11/15 00:46:35;;;;;;;13.03;10.00;;;3.10;99.90;;;;;;5114620;28;20583;-76
2022/11/15 00:49:05;;;;;;;11.33;9.53;;;3.10;99.90;;;;;;5114675;28;20209;-77
2022/11/15 00:51:33;;;;;;;11.70;9.50;;;3.10;99.90;;;;;;5113875;28;20233;-76
2022/11/15 00:54:01;;;;;;;11.83;9.57;;;3.20;99.90;;;;;;5113848;28;20218;-76
2022/11/15 00:56:30;;;;;;;13.17;10.13;;;3.20;99.90;;;;;;5114598;28;20293;-80
2022/11/15 00:58:59;;;;;;;11.23;9.23;;;3.20;99.90;;;;;;5114257;28;20206;-80
2022/11/15 01:01:29;;;;;;;10.30;8.90;;;3.30;99.90;;;;;;5106907;28;20225;-81
2022/11/15 01:04:00;;;;;;;11.57;8.83;;;3.40;99.90;;;;;;5114397;28;20210;-77
2022/11/15 01:06:28;;;;;;;10.77;9.00;;;3.30;99.90;;;;;;5114752;28;20214;-78
2022/11/15 01:08:56;;;;;;;13.63;9.30;;;3.40;99.90;;;;;;5114002;28;20211;-78
2022/11/15 01:11:24;;;;;;;10.33;8.67;;;3.50;99.90;;;;;;5134332;28;20258;-75
2022/11/15 01:13:52;;;;;;;10.47;8.67;;;3.50;99.90;;;;;;5137938;28;20229;-77
2022/11/15 01:16:21;;;;;;;9.80;8.17;;;3.50;99.90;;;;;;5135600;28;20216;-76
2022/11/15 01:18:51;;;;;;;9.10;8.00;;;3.50;99.90;;;;;;5135582;28;20213;-79
2022/11/15 01:21:20;;;;;;;10.13;8.50;;;3.60;99.90;;;;;;5134616;28;20205;-79
2022/11/15 01:23:48;;;;;;;10.73;8.40;;;3.60;99.90;;;;;;5135131;28;20236;-77
2022/11/15 01:26:19;;;;;;;12.33;8.37;;;3.70;99.90;;;;;;5135443;28;20201;-82
2022/11/15 01:28:48;;;;;;;9.07;7.50;;;3.60;99.90;;;;;;5134514;28;20296;-77
2022/11/15 01:31:18;;;;;;;9.43;8.17;;;3.60;99.90;;;;;;5134482;28;20221;-79
2022/11/15 01:33:47;;;;;;;8.73;7.50;;;3.50;99.90;;;;;;5134529;28;20707;-80
2022/11/15 01:36:21;;;;;;;9.00;7.87;;;3.60;99.90;;;;;;5134595;28;20204;-79
2022/11/15 01:38:59;;;;;;;8.77;7.80;;;3.50;99.90;;;;;;5134073;28;20669;-78
2022/11/15 01:41:30;;;;;;;9.93;7.70;;;3.70;99.90;;;;;;5120831;28;20202;-77
2022/11/15 01:44:19;;;;;;;9.10;7.67;;;3.60;99.90;;;;;;5113451;28;20229;-76
2022/11/15 01:46:49;;;;;;;9.00;7.27;;;3.70;99.90;;;;;;5113180;28;20202;-79
2022/11/15 01:49:20;;;;;;;10.97;7.10;;;3.60;99.90;;;;;;5113347;28;20226;-81
2022/11/15 01:51:49;;;;;;;9.37;6.87;;;3.70;99.90;;;;;;5113942;28;20584;-82
2022/11/15 01:54:25;;;;;;;7.73;6.57;;;3.60;99.90;;;;;;5117229;28;20224;-80
2022/11/15 01:56:58;;;;;;;8.93;7.20;;;3.70;99.90;;;;;;5117598;28;20209;-81
2022/11/15 01:59:27;;;;;;;7.47;6.30;;;3.60;99.90;;;;;;5122782;27;20213;-76
2022/11/15 02:01:56;;;;;;;8.23;6.90;;;3.70;99.90;;;;;;5138085;27;20233;-78
2022/11/15 02:04:27;;;;;;;8.17;6.07;;;3.70;99.90;;;;;;5137969;27;20769;-79
2022/11/15 02:06:57;;;;;;;9.00;6.30;;;3.70;99.90;;;;;;5137635;27;20209;-76
2022/11/15 02:09:25;;;;;;;7.13;5.80;;;3.80;99.90;;;;;;5136762;27;20760;-80
2022/11/15 02:11:55;;;;;;;7.03;5.70;;;3.80;99.90;;;;;;5137621;27;20222;-78
2022/11/15 02:14:26;;;;;;;7.40;5.87;;;3.90;99.90;;;;;;5137436;27;20209;-79
2022/11/15 02:17:01;;;;;;;6.90;5.60;;;3.90;99.90;;;;;;5137174;27;20288;-80
2022/11/15 02:19:47;;;;;;;5.73;5.00;;;4.00;99.90;;;;;;5137587;27;20192;-80
2022/11/15 02:22:32;;;;;;;6.23;5.10;;;4.10;99.90;;;;;;5137272;27;20198;-80
2022/11/15 02:25:18;;;;;;;6.30;5.03;;;4.10;99.90;;;;;;5137304;27;20207;-79
2022/11/15 02:28:09;;;;;;;6.17;5.10;;;4.10;99.90;;;;;;5116436;28;20195;-80
2022/11/15 02:30:49;;;;;;;7.90;4.80;;;4.10;99.90;;;;;;5116467;28;20199;-77
2022/11/15 02:33:31;;;;;;;7.27;5.40;;;4.10;99.90;;;;;;5116504;28;20232;-77
2022/11/15 02:36:03;;;;;;;5.67;4.80;;;4.10;99.90;;;;;;5116788;27;20210;-81
2022/11/15 02:38:41;;;;;;;5.90;4.70;;;4.10;99.90;;;;;;5131674;27;20193;-80
2022/11/15 02:41:14;;;;;;;5.83;4.80;;;4.10;99.90;;;;;;5137225;27;20209;-80
2022/11/15 02:43:56;;;;;;;6.00;4.70;;;4.10;99.90;;;;;;5136548;27;20579;-79
2022/11/15 02:49:15;;;;;;;5.57;4.37;;;4.20;99.90;;;;;;5135240;27;20548;-79
2022/11/15 02:51:47;;;;;;;5.13;4.40;;;4.10;99.90;;;;;;5133520;27;20210;-80
2022/11/15 02:54:21;;;;;;;6.23;4.73;;;4.20;99.90;;;;;;5116159;28;20214;-81
2022/11/15 02:56:51;;;;;;;6.00;4.37;;;4.10;99.90;;;;;;5115988;28;20581;-81
2022/11/15 02:59:45;;;;;;;8.30;4.70;;;4.10;99.90;;;;;;5116155;27;20577;-79
2022/11/15 03:02:36;;;;;;;5.50;4.57;;;4.00;99.90;;;;;;5115110;28;20229;-81
2022/11/15 03:05:17;;;;;;;7.47;4.83;;;3.90;99.90;;;;;;5115077;28;20552;-80
2022/11/15 03:07:56;;;;;;;7.70;4.77;;;3.70;99.90;;;;;;5123997;27;20209;-80
2022/11/15 03:10:38;;;;;;;5.50;4.80;;;3.70;99.90;;;;;;5127868;27;20530;-81
2022/11/15 03:13:20;;;;;;;6.37;4.77;;;3.60;99.90;;;;;;5136078;27;20580;-80
2022/11/15 03:15:58;;;;;;;5.40;4.63;;;3.50;99.90;;;;;;5131711;27;20648;-81
2022/11/15 03:18:34;;;;;;;7.67;5.17;;;3.40;99.90;;;;;;5115381;28;20280;-76
2022/11/15 03:21:08;;;;;;;6.33;4.83;;;3.40;99.90;;;;;;5115000;28;20557;-80
2022/11/15 03:23:38;;;;;;;5.83;5.13;;;3.30;99.90;;;;;;5116442;27;20215;-81
2022/11/15 03:26:10;;;;;;;6.13;5.07;;;3.30;99.90;;;;;;5120695;27;20237;-75
2022/11/15 03:28:45;;;;;;;6.60;4.80;;;3.20;99.90;;;;;;5121446;28;20191;-76
2022/11/15 03:34:10;;;;;;;7.37;5.47;;;3.10;99.90;;;;;;5127229;27;20274;-76
2022/11/15 03:36:39;;;;;;;6.03;5.30;;;3.00;99.90;;;;;;5123332;28;20214;-77
2022/11/15 03:39:09;;;;;;;6.40;5.10;;;2.90;99.90;;;;;;5115087;28;20207;-80
2022/11/15 03:41:44;;;;;;;6.10;4.80;;;2.80;99.90;;;;;;5115138;28;20206;-81
2022/11/15 03:44:17;;;;;;;6.53;4.87;;;2.80;99.90;;;;;;5115038;28;20197;-80
2022/11/15 03:46:52;;;;;;;5.30;4.73;;;2.80;99.90;;;;;;5114674;28;20246;-79
2022/11/15 03:49:29;;;;;;;6.93;5.73;;;2.80;99.90;;;;;;5114893;28;20205;-82
2022/11/15 03:51:59;;;;;;;6.30;5.37;;;2.70;99.90;;;;;;5114389;28;20201;-79
2022/11/15 03:54:27;;;;;;;6.67;5.00;;;2.60;99.90;;;;;;5114028;28;20232;-81
2022/11/15 03:56:55;;;;;;;6.17;5.03;;;2.60;99.90;;;;;;5114648;28;20214;-78
2022/11/15 03:59:26;;;;;;;6.33;5.23;;;2.60;99.90;;;;;;5114508;28;20214;-78
2022/11/15 04:01:54;;;;;;;6.37;5.23;;;2.50;99.90;;;;;;5117794;27;20221;-81
2022/11/15 04:04:23;;;;;;;7.77;5.77;;;2.40;99.90;;;;;;5134879;27;20209;-77
2022/11/15 04:06:51;;;;;;;7.13;5.87;;;2.40;99.90;;;;;;5135106;27;20318;-82
2022/11/15 04:09:21;;;;;;;7.97;5.70;;;2.40;99.90;;;;;;5134823;27;20209;-79
2022/11/15 04:11:49;;;;;;;7.53;5.90;;;2.40;99.90;;;;;;5121625;27;20214;-81
2022/11/15 04:14:19;;;;;;;5.97;5.37;;;2.40;99.90;;;;;;5114088;28;20722;-81
2022/11/15 04:16:47;;;;;;;7.77;5.63;;;2.40;99.90;;;;;;5113600;28;20237;-79
2022/11/15 04:24:52;;;;;;;7.43;5.60;;;2.30;99.90;;;;;;5113894;28;20194;-79
2022/11/15 04:27:20;;;;;;;6.60;5.77;;;2.20;99.90;;;;;;5114044;28;20190;-80
2022/11/15 04:29:48;;;;;;;7.27;5.60;;;2.10;99.90;;;;;;5113806;28;20206;-77
2022/11/15 04:32:16;;;;;;;7.57;6.00;;;2.10;99.90;;;;;;5114231;28;20217;-79
2022/11/15 04:34:47;;;;;;;8.47;6.50;;;2.10;99.90;;;;;;5113780;28;20244;-81
2022/11/15 04:37:16;;;;;;;7.33;6.03;;;2.00;99.90;;;;;;5119627;27;20232;-79
2022/11/15 04:39:44;;;;;;;8.47;6.37;;;2.00;99.90;;;;;;5113438;28;20617;-80
2022/11/15 04:42:15;;;;;;;7.73;6.37;;;2.00;99.90;;;;;;5113894;28;20212;-79
2022/11/15 04:44:46;;;;;;;8.27;6.13;;;2.00;99.90;;;;;;5128494;27;20206;-80
2022/11/15 04:47:14;;;;;;;9.43;6.27;;;2.00;99.90;;;;;;5134330;27;20210;-80
2022/11/15 04:49:43;;;;;;;8.23;6.17;;;2.00;99.90;;;;;;5134312;27;20206;-80
2022/11/15 04:52:13;;;;;;;7.70;6.53;;;1.90;99.90;;;;;;5134547;27;20208;-78
2022/11/15 04:54:43;;;;;;;9.57;6.53;;;1.90;99.90;;;;;;5134383;27;20216;-78
2022/11/15 04:57:11;;;;;;;8.10;6.70;;;1.90;99.90;;;;;;5125727;27;20210;-80
2022/11/15 04:59:39;;;;;;;10.27;7.00;;;1.80;99.90;;;;;;5134005;27;20209;-77
2022/11/15 05:02:09;;;;;;;7.40;6.30;;;1.80;99.90;;;;;;5133754;27;20252;-80
2022/11/15 05:04:36;;;;;;;8.70;6.23;;;1.80;99.90;;;;;;5133245;27;20209;-80
2022/11/15 05:07:04;;;;;;;9.23;6.47;;;1.80;99.90;;;;;;5134035;27;20311;-80
2022/11/15 05:09:33;;;;;;;9.23;6.50;;;1.70;99.90;;;;;;5133568;28;20834;-79
2022/11/15 05:12:03;;;;;;;7.50;6.17;;;1.70;99.90;;;;;;5134060;28;20209;-79
2022/11/15 05:14:31;;;;;;;8.83;6.67;;;1.70;99.90;;;;;;5126099;28;20580;-79
2022/11/15 05:17:01;;;;;;;8.07;6.40;;;1.60;99.90;;;;;;5112312;28;20241;-79
2022/11/15 05:19:30;;;;;;;8.13;6.50;;;1.60;99.90;;;;;;5112214;28;20194;-78
2022/11/15 05:22:01;;;;;;;8.57;7.10;;;1.60;99.90;;;;;;5112986;28;20202;-77
2022/11/15 05:24:29;;;;;;;9.83;7.10;;;1.50;99.90;;;;;;5113214;28;20198;-80
2022/11/15 05:26:57;;;;;;;8.50;6.73;;;1.50;99.90;;;;;;5119082;27;20603;-79
2022/11/15 05:29:29;;;;;;;9.73;7.17;;;1.50;99.90;;;;;;5137972;27;20197;-79
2022/11/15 05:31:58;;;;;;;8.23;6.70;;;1.50;99.90;;;;;;5138433;27;20194;-79
2022/11/15 05:34:26;;;;;;;9.87;8.00;;;1.50;99.90;;;;;;5138249;27;20236;-81
2022/11/15 05:36:54;;;;;;;9.47;8.23;;;1.50;99.90;;;;;;5138065;27;20217;-81
2022/11/15 05:39:26;;;;;;;10.27;8.33;;;1.40;99.90;;;;;;5137954;27;20458;-76
2022/11/15 05:41:58;;;;;;;13.50;9.17;;;1.40;99.90;;;;;;5137978;27;20209;-79
2022/11/15 05:44:28;;;;;;;12.97;10.50;;;1.40;99.90;;;;;;5137856;27;20219;-75
2022/11/15 05:47:00;;;;;;;15.27;11.63;;;1.30;99.90;;;;;;5138412;27;20436;-78
2022/11/15 05:49:32;;;;;;;14.83;12.27;;;1.30;99.90;;;;;;5139053;27;20212;-77
2022/11/15 05:52:00;;;;;;;13.63;11.77;;;1.30;99.90;;;;;;5140641;27;20679;-75
2022/11/15 05:54:29;;;;;;;14.33;11.77;;;1.20;99.90;;;;;;5139637;27;20232;-75
2022/11/15 05:57:02;;;;;;;12.57;10.80;;;1.20;99.90;;;;;;5125100;27;20297;-77
2022/11/15 05:59:32;;;;;;;12.37;10.93;;;1.20;99.90;;;;;;5117157;28;20187;-74
2022/11/15 06:02:00;;;;;;;16.13;11.67;;;1.20;99.90;;;;;;5117233;28;20226;-75
2022/11/15 06:04:31;;;;;;;13.20;11.30;;;1.10;99.90;;;;;;5136129;27;20194;-78
2022/11/15 06:07:00;;;;;;;14.03;10.80;;;1.20;99.90;;;;;;5138322;27;20209;-76
2022/11/15 06:09:28;;;;;;;13.13;10.93;;;1.20;99.90;;;;;;5138020;27;20260;-78
2022/11/15 06:11:56;;;;;;;14.00;10.33;;;1.20;99.90;;;;;;5137596;27;20436;-79
2022/11/15 06:14:24;;;;;;;15.47;10.23;;;1.20;99.90;;;;;;5135636;27;20937;-77
2022/11/15 06:16:54;;;;;;;15.73;10.57;;;1.20;99.90;;;;;;5137361;27;20223;-77
2022/11/15 06:19:33;;;;;;;13.90;10.17;;;1.20;99.90;;;;;;5136902;27;20258;-76
2022/11/15 06:22:04;;;;;;;13.07;9.53;;;1.20;99.90;;;;;;5131823;27;20244;-77
2022/11/15 06:24:36;;;;;;;13.43;10.10;;;1.20;99.90;;;;;;5133905;27;20205;-76
2022/11/15 06:27:04;;;;;;;13.77;10.63;;;1.30;99.90;;;;;;5129132;27;20202;-77
2022/11/15 06:29:33;;;;;;;16.30;11.30;;;1.30;99.90;;;;;;5136550;27;20467;-77
2022/11/15 06:32:02;;;;;;;17.37;11.27;;;1.40;99.90;;;;;;5137355;27;20205;-75
2022/11/15 06:34:30;;;;;;;13.03;10.07;;;1.40;99.90;;;;;;5136902;27;20485;-80
2022/11/15 06:36:59;;;;;;;14.50;10.90;;;1.50;99.90;;;;;;5138611;27;20202;-75
2022/11/15 06:39:28;;;;;;;14.00;10.80;;;1.50;99.90;;;;;;5128744;27;20209;-78
2022/11/15 06:41:59;;;;;;;19.97;11.97;;;1.50;99.90;;;;;;5132927;27;20202;-77
2022/11/15 06:44:29;;;;;;;13.20;11.47;;;1.50;99.90;;;;;;5133245;27;20194;-77
2022/11/15 06:46:57;;;;;;;14.70;11.57;;;1.50;99.90;;;;;;5139736;27;20209;-76
2022/11/15 06:49:26;;;;;;;15.07;11.60;;;1.40;99.90;;;;;;5138734;27;20289;-75
2022/11/15 06:51:58;;;;;;;14.30;11.80;;;1.50;99.90;;;;;;5133526;27;20194;-75
2022/11/15 06:54:26;;;;;;;15.03;11.87;;;1.50;99.90;;;;;;5138272;27;20217;-76
2022/11/15 06:56:54;;;;;;;15.97;12.17;;;1.40;99.90;;;;;;5142123;27;20337;-79
2022/11/15 06:59:22;;;;;;;12.97;10.60;;;1.50;99.90;;;;;;5137224;27;20210;-78
2022/11/15 07:01:51;;;;;;;15.60;12.50;;;1.50;99.90;;;;;;5137680;27;20448;-75
2022/11/15 07:04:19;;;;;;;15.23;11.23;;;1.50;99.90;;;;;;5138621;27;20219;-76
2022/11/15 07:06:50;;;;;;;14.23;12.03;;;1.50;99.90;;;;;;5138125;27;20206;-74
2022/11/15 07:09:20;;;;;;;14.70;11.20;;;1.60;99.90;;;;;;5138358;27;20197;-74
2022/11/15 07:14:44;;;;;;;15.07;12.10;;;1.80;99.90;;;;;;5152395;27;20210;-75
2022/11/15 07:17:13;;;;;;;28.23;13.20;;;1.90;99.90;;;;;;5157161;27;20228;-76
2022/11/15 07:19:43;;;;;;;33.60;13.00;;;2.00;99.90;;;;;;5154524;27;20254;-73
2022/11/15 07:22:18;;;;;;;22.87;12.87;;;2.10;99.90;;;;;;5138154;27;20197;-77
2022/11/15 07:24:47;;;;;;;20.50;13.67;;;2.20;99.90;;;;;;5137046;27;20197;-79
2022/11/15 07:27:15;;;;;;;16.53;13.23;;;2.20;99.90;;;;;;5136460;27;20207;-76
2022/11/15 07:29:45;;;;;;;14.20;11.87;;;2.30;99.90;;;;;;5138928;27;20278;-74
2022/11/15 07:32:13;;;;;;;15.57;11.60;;;2.50;99.90;;;;;;5140849;27;20197;-75
2022/11/15 07:34:43;;;;;;;13.27;10.73;;;2.40;99.90;;;;;;5132363;27;20233;-74
2022/11/15 07:37:13;;;;;;;14.63;12.23;;;2.50;99.90;;;;;;5132437;27;20641;-76
2022/11/15 07:39:41;;;;;;;15.00;11.20;;;2.60;99.90;;;;;;5136077;27;20209;-73
2022/11/15 07:44:58;;;;;;;13.90;10.53;;;2.90;99.90;;;;;;5132393;27;20210;-78
2022/11/15 07:47:31;;;;;;;10.80;9.47;;;3.30;99.90;;;;;;5135641;27;20557;-77
2022/11/15 07:50:00;;;;;;;11.70;9.30;;;3.60;99.90;;;;;;5134949;27;20205;-75
2022/11/15 07:52:29;;;;;;;13.47;8.80;;;4.00;99.90;;;;;;5124694;27;20218;-76
2022/11/15 07:54:58;;;;;;;10.40;7.77;;;4.40;99.90;;;;;;5114979;28;20224;-78
2022/11/15 07:57:26;;;;;;;10.07;7.37;;;4.90;99.90;;;;;;5114725;28;20206;-78
2022/11/15 07:59:54;;;;;;;9.03;7.20;;;5.30;99.90;;;;;;5116880;27;20225;-76
2022/11/15 08:02:23;;;;;;;7.20;6.47;;;5.90;99.90;;;;;;5135498;27;20297;-75
2022/11/15 08:04:57;;;;;;;8.97;6.87;;;6.30;99.90;;;;;;5136185;27;20601;-76
2022/11/15 08:07:25;;;;;;;7.77;6.80;;;6.50;99.90;;;;;;5136445;27;20209;-73
2022/11/15 08:09:56;;;;;;;8.90;6.70;;;6.70;99.90;;;;;;5134772;27;20718;-74
2022/11/15 08:12:25;;;;;;;9.53;6.97;;;6.90;99.90;;;;;;5135991;27;20205;-75
2022/11/15 08:14:53;;;;;;;8.23;6.40;;;7.40;99.90;;;;;;5134826;27;20233;-74
2022/11/15 08:17:21;;;;;;;9.67;6.67;;;7.70;99.90;;;;;;5135167;27;20674;-76
2022/11/15 08:19:50;;;;;;;8.33;6.07;;;7.70;99.90;;;;;;5114910;27;20216;-76
2022/11/15 08:22:19;;;;;;;8.27;7.03;;;7.50;99.90;;;;;;5115504;28;20545;-75
2022/11/15 08:24:50;;;;;;;8.33;6.33;;;7.40;99.90;;;;;;5115176;28;20226;-74
2022/11/15 08:27:22;;;;;;;10.27;6.67;;;7.40;99.90;;;;;;5115098;27;20209;-76
2022/11/15 08:29:50;;;;;;;9.17;6.63;;;7.50;99.90;;;;;;5114421;28;20222;-78
2022/11/15 08:32:26;;;;;;;7.03;6.30;;;7.60;99.90;;;;;;5121561;28;20193;-76
2022/11/15 08:35:00;;;;;;;9.43;6.67;;;7.70;99.90;;;;;;5115351;28;20237;-78
2022/11/15 08:37:28;;;;;;;10.33;6.30;;;7.90;99.90;;;;;;5114576;28;20196;-77
2022/11/15 08:39:56;;;;;;;8.83;6.13;;;8.30;99.90;;;;;;5114440;28;20206;-76
2022/11/15 08:42:27;;;;;;;10.97;6.30;;;9.00;99.90;;;;;;5114294;28;20210;-74
2022/11/15 08:44:56;;;;;;;6.80;5.47;;;9.60;99.90;;;;;;5118950;28;20224;-76
2022/11/15 08:47:26;;;;;;;5.63;4.87;;;11.70;99.90;;;;;;5116217;28;20292;-76
2022/11/15 08:49:57;;;;;;;10.00;5.53;;;13.60;99.90;;;;;;5113506;28;20202;-76
2022/11/15 08:52:28;;;;;;;8.40;5.23;;;16.00;99.90;;;;;;5113115;28;20241;-73
2022/11/15 08:54:58;;;;;;;9.97;5.40;;;17.10;99.90;;;;;;5133071;27;20256;-75
2022/11/15 08:57:34;;;;;;;5.67;5.03;;;16.40;99.60;;;;;;5120677;27;20240;-77
2022/11/15 09:00:02;;;;;;;6.00;5.00;;;16.30;99.90;;;;;;5118966;27;20198;-76
2022/11/15 09:02:32;;;;;;;6.47;5.10;;;14.80;99.90;;;;;;5132232;27;20292;-74
2022/11/15 09:05:10;;;;;;;5.80;5.20;;;14.90;99.90;;;;;;5130192;27;20228;-75
2022/11/15 09:07:42;;;;;;;5.20;4.23;;;15.20;99.90;;;;;;5131176;28;20682;-75
2022/11/15 09:10:11;;;;;;;6.07;4.67;;;16.10;99.90;;;;;;5132394;28;20273;-75
2022/11/15 09:12:44;;;;;;;4.88;4.10;;;16.60;99.00;;;;;;5132304;28;20190;-75
2022/11/15 09:15:19;;;;;;;6.90;4.18;;;17.40;98.40;;;;;;5130871;28;20217;-77
2022/11/15 09:17:48;;;;;;;5.82;3.70;;;17.00;98.00;;;;;;5132565;28;20197;-75
2022/11/15 09:20:16;;;;;;;4.10;3.40;;;16.20;97.70;;;;;;5131972;28;20667;-75
2022/11/15 09:22:45;;;;;;;4.93;4.10;;;16.00;98.30;;;;;;5132282;28;20197;-76
2022/11/15 09:25:13;;;;;;;4.15;3.75;;;16.60;96.80;;;;;;5132438;28;20193;-75
2022/11/15 09:27:41;;;;;;;4.80;4.07;;;17.00;97.20;;;;;;5130584;28;20670;-76
2022/11/15 09:30:11;;;;;;;6.40;4.30;;;19.10;94.00;;;;;;5132611;28;20280;-76
2022/11/15 09:32:41;;;;;;;5.72;3.88;;;18.20;93.70;;;;;;5132781;28;20197;-78
2022/11/15 09:35:09;;;;;;;5.33;3.80;;;17.90;94.00;;;;;;5132598;28;20225;-77
2022/11/15 09:37:39;;;;;;;5.30;3.67;;;18.90;92.40;;;;;;5131563;28;20215;-74
2022/11/15 09:40:12;;;;;;;3.50;3.20;;;18.90;91.50;;;;;;5130576;28;20659;-79
2022/11/15 09:42:58;;;;;;;3.80;3.40;;;19.10;91.80;;;;;;5132273;28;20667;-77
2022/11/15 09:45:35;;;;;;;4.13;3.50;;;18.60;91.80;;;;;;5132141;28;20273;-75
2022/11/15 09:48:35;;;;;;;4.23;3.83;;;17.80;91.90;;;;;;5133017;28;20268;-75
2022/11/15 09:51:05;;;;;;;6.33;3.70;;;16.50;94.20;;;;;;5132534;28;20703;-76
2022/11/15 09:53:41;;;;;;;5.40;3.73;;;17.50;93.60;;;;;;5132755;28;20300;-75
2022/11/15 09:56:32;;;;;;;3.63;3.17;;;16.60;94.60;;;;;;5129804;27;20232;-76
2022/11/15 09:59:16;;;;;;;5.00;3.70;;;17.10;95.40;;;;;;5131165;28;20202;-75
2022/11/15 10:02:00;;;;;;;4.17;3.30;;;16.80;95.90;;;;;;5130217;27;20206;-79
2022/11/15 10:04:29;;;;;;;3.97;3.30;;;18.10;94.50;;;;;;5129417;28;20202;-75
2022/11/15 10:07:06;;;;;;;3.77;2.83;;;18.50;92.60;;;;;;5133315;28;20222;-79
2022/11/15 10:09:40;;;;;;;3.35;2.90;;;18.40;93.00;;;;;;5131426;28;20227;-75
2022/11/15 10:12:12;;;;;;;3.17;2.63;;;18.00;93.70;;;;;;5128908;27;20234;-75
2022/11/15 10:14:41;;;;;;;4.13;2.75;;;18.20;93.60;;;;;;5133931;27;20201;-78
2022/11/15 10:17:41;;;;;;;5.63;2.83;;;19.40;91.60;;;;;;5135229;27;20691;-79
2022/11/15 10:20:20;;;;;;;4.20;3.37;;;18.30;93.60;;;;;;5133639;27;20658;-75
2022/11/15 10:22:52;;;;;;;5.03;2.92;;;17.90;94.20;;;;;;5131021;27;20283;-75
2022/11/15 10:25:23;;;;;;;4.03;3.10;;;17.80;94.30;;;;;;5135931;27;20204;-73
2022/11/15 10:27:55;;;;;;;5.30;3.00;;;17.20;95.10;;;;;;5135646;27;20190;-78
2022/11/15 10:30:24;;;;;;;3.73;3.37;;;17.70;95.30;;;;;;5135101;27;20190;-74
2022/11/15 10:32:54;;;;;;;3.63;3.10;;;17.40;95.70;;;;;;5134108;27;20752;-75
2022/11/15 10:35:26;;;;;;;3.10;2.70;;;17.30;95.00;;;;;;5134937;27;20292;-76
2022/11/15 10:38:07;;;;;;;5.38;3.22;;;18.10;94.60;;;;;;5133263;27;20213;-78
2022/11/15 10:40:36;;;;;;;4.15;3.10;;;18.40;93.70;;;;;;5132236;27;20205;-76
2022/11/15 10:43:16;;;;;;;5.45;3.47;;;17.70;94.80;;;;;;5127787;27;20198;-78
2022/11/15 10:45:46;;;;;;;5.63;3.40;;;17.70;94.60;;;;;;5130670;27;20197;-78
2022/11/15 10:48:28;;;;;;;4.77;3.80;;;17.40;94.60;;;;;;5133598;27;20234;-78
2022/11/15 10:50:57;;;;;;;3.70;3.40;;;17.70;95.30;;;;;;5131701;27;20193;-77
2022/11/15 10:53:32;;;;;;;3.63;3.33;;;17.70;95.50;;;;;;5131455;27;20732;-76
2022/11/15 10:56:07;;;;;;;3.70;3.40;;;18.00;95.70;;;;;;5134438;27;20273;-78
2022/11/15 10:58:42;;;;;;;3.85;3.40;;;17.80;95.60;;;;;;5135303;27;20200;-77
2022/11/15 11:01:16;;;;;;;5.40;3.30;;;19.20;95.00;;;;;;5133260;27;20217;-77
2022/11/15 11:03:59;;;;;;;5.68;3.65;;;19.90;93.00;;;;;;5132681;27;20279;-74
2022/11/15 11:06:27;;;;;;;5.57;3.50;;;18.90;95.10;;;;;;5135899;27;20232;-78
2022/11/15 11:09:00;;;;;;;4.18;3.58;;;19.00;93.90;;;;;;5135437;27;20186;-78
2022/11/15 11:11:46;;;;;;;3.88;3.47;;;18.40;95.50;;;;;;5131983;27;20544;-76
2022/11/15 11:14:21;;;;;;;4.60;3.40;;;18.50;95.40;;;;;;5132135;27;20655;-76
2022/11/15 11:16:53;;;;;;;3.70;3.40;;;18.10;96.20;;;;;;5134685;27;20900;-77
2022/11/15 11:19:50;;;;;;;5.80;3.58;;;19.30;95.10;;;;;;5135852;27;20285;-75
2022/11/15 11:22:24;;;;;;;4.22;3.55;;;18.80;95.70;;;;;;5133323;27;20627;-77
2022/11/15 11:25:09;;;;;;;4.50;3.67;;;19.30;95.10;;;;;;5134986;27;20193;-75
2022/11/15 11:27:44;;;;;;;6.20;3.70;;;18.40;95.90;;;;;;5128101;27;20228;-78
2022/11/15 11:30:17;;;;;;;5.43;3.63;;;17.60;96.80;;;;;;5134716;27;20196;-76
2022/11/15 11:33:03;;;;;;;4.57;3.90;;;17.20;99.20;;;;;;5134086;27;20231;-79
2022/11/15 11:35:40;;;;;;;4.03;3.47;;;17.40;98.30;;;;;;5133980;27;20193;-78
2022/11/15 11:38:22;;;;;;;3.57;3.20;;;17.50;97.10;;;;;;5133987;27;20611;-77
2022/11/15 11:41:09;;;;;;;4.40;3.90;;;17.60;97.30;;;;;;5133984;27;20640;-77
2022/11/15 11:43:46;;;;;;;6.30;4.23;;;16.20;99.90;;;;;;5128899;27;20209;-78
2022/11/15 11:46:48;;;;;;;5.07;3.97;;;15.60;99.90;;;;;;5130953;27;20193;-76
2022/11/15 11:49:22;;;;;;;4.30;3.77;;;15.60;99.90;;;;;;5131599;27;20192;-78
2022/11/15 11:51:55;;;;;;;4.40;4.00;;;15.40;99.90;;;;;;5132975;27;20240;-78
2022/11/15 11:54:33;;;;;;;6.00;4.30;;;15.30;99.90;;;;;;5133086;27;20213;-77
2022/11/15 11:57:09;;;;;;;4.00;3.60;;;15.30;99.90;;;;;;5135177;27;20213;-77
2022/11/15 11:59:44;;;;;;;4.27;3.87;;;15.60;99.90;;;;;;5134925;27;20213;-77
2022/11/15 12:02:19;;;;;;;5.60;3.97;;;15.30;99.90;;;;;;5134973;27;20191;-77
2022/11/15 12:04:51;;;;;;;4.03;3.63;;;15.20;99.90;;;;;;5133390;27;20181;-74
2022/11/15 12:07:25;;;;;;;6.93;3.87;;;15.00;99.90;;;;;;5116913;27;20704;-78
2022/11/15 12:10:01;;;;;;;4.50;4.00;;;14.60;99.90;;;;;;5113637;28;20216;-77
2022/11/15 12:12:36;;;;;;;5.73;4.43;;;14.60;99.90;;;;;;5113054;28;20193;-76
2022/11/15 12:15:12;;;;;;;5.97;4.23;;;14.40;99.90;;;;;;5116449;27;20273;-78
2022/11/15 12:17:42;;;;;;;5.80;4.47;;;14.30;99.90;;;;;;5133590;27;20245;-74
2022/11/15 12:20:17;;;;;;;7.37;4.40;;;14.20;99.90;;;;;;5132611;27;20236;-76
2022/11/15 12:22:54;;;;;;;5.93;3.97;;;13.90;99.90;;;;;;5133772;27;20189;-76
2022/11/15 12:25:28;;;;;;;5.63;4.37;;;13.80;99.90;;;;;;5116684;27;20202;-78
2022/11/15 12:28:00;;;;;;;6.27;4.60;;;13.90;99.90;;;;;;5113626;28;20222;-77
2022/11/15 12:30:46;;;;;;;5.03;4.43;;;13.90;99.90;;;;;;5113746;28;20210;-78
2022/11/15 12:33:37;;;;;;;7.73;4.43;;;14.10;99.90;;;;;;5113952;28;20296;-77
2022/11/15 12:36:09;;;;;;;4.97;4.37;;;13.90;99.90;;;;;;5112840;28;20198;-78
2022/11/15 12:38:56;;;;;;;6.97;4.47;;;13.80;99.90;;;;;;5113531;28;20739;-79
2022/11/15 12:41:27;;;;;;;9.20;4.87;;;13.80;99.90;;;;;;5113131;27;20662;-78
2022/11/15 12:43:56;;;;;;;7.07;4.83;;;13.50;99.90;;;;;;5113532;28;20202;-78
2022/11/15 12:47:01;;;;;;;5.10;4.50;;;13.70;99.90;;;;;;5104945;28;20214;-79
2022/11/15 12:49:48;;;;;;;8.90;4.70;;;13.80;99.90;;;;;;5112759;28;20574;-78
2022/11/15 12:52:17;;;;;;;7.33;5.20;;;13.70;99.90;;;;;;5113338;28;20205;-77
2022/11/15 12:55:01;;;;;;;8.97;4.90;;;13.60;99.90;;;;;;5131824;27;20201;-78
2022/11/15 12:57:40;;;;;;;11.47;5.10;;;13.40;99.90;;;;;;5124737;27;20683;-76
2022/11/15 13:00:50;;;;;;;8.83;4.37;;;13.40;99.90;;;;;;5113384;28;20576;-78
2022/11/15 13:03:33;;;;;;;8.40;4.77;;;13.40;99.90;;;;;;5113097;28;20633;-78
2022/11/15 13:06:08;;;;;;;6.90;4.77;;;13.30;99.90;;;;;;5123097;27;20659;-77
2022/11/15 13:08:43;;;;;;;5.97;4.90;;;13.20;99.90;;;;;;5133861;27;20186;-78
2022/11/15 13:11:48;;;;;;;7.97;5.20;;;13.10;99.90;;;;;;5134157;28;20193;-76
2022/11/15 13:14:42;;;;;;;6.40;5.17;;;13.10;99.90;;;;;;5116209;28;20206;-79
2022/11/15 13:17:33;;;;;;;6.10;4.53;;;13.00;99.90;;;;;;5104077;28;20692;-75
2022/11/15 13:20:23;;;;;;;5.30;4.67;;;12.90;99.90;;;;;;5107968;28;20625;-77
2022/11/15 13:22:54;;;;;;;6.20;5.30;;;12.90;99.90;;;;;;5112853;28;20656;-78
2022/11/15 13:25:43;;;;;;;6.83;5.47;;;12.80;99.90;;;;;;5113274;28;20636;-77
2022/11/15 13:28:29;;;;;;;6.80;5.13;;;12.70;99.90;;;;;;5113634;28;20186;-76
2022/11/15 13:31:00;;;;;;;8.47;5.77;;;12.50;99.90;;;;;;5113155;28;20194;-77
2022/11/15 13:33:32;;;;;;;6.00;5.13;;;12.50;99.90;;;;;;5113824;28;20209;-78
2022/11/15 13:36:07;;;;;;;6.43;5.23;;;12.60;99.90;;;;;;5113031;28;20568;-77